Time;durP1;ratioP1;P1;durP2;ratioP2;P2;SDS_P1;SDS_P2;PMS_P1;PMS_P2;Temp;Humidity;BMP_temperature;BMP_pressure;BME280_temperature;BME280_humidity;BME280_pressure;Samples;Min_cycle;Max_cycle;Signal;HPM_P1;HPM_P2
2022/05/22 00:01:13;;;;;;;3.38;1.67;;;15.90;70.70;;;;;;4959845;28;20118;-64
2022/05/22 00:03:41;;;;;;;3.53;0.80;;;15.90;70.60;;;;;;4962168;28;20449;-64
2022/05/22 00:06:10;;;;;;;2.40;0.85;;;15.90;70.60;;;;;;4962850;28;20866;-66
2022/05/22 00:08:38;;;;;;;1.17;0.70;;;15.90;70.60;;;;;;4963497;28;20047;-64
2022/05/22 00:11:05;;;;;;;2.25;0.80;;;15.90;70.50;;;;;;4962493;28;20057;-64
2022/05/22 00:13:32;;;;;;;5.68;0.93;;;15.80;70.50;;;;;;4960289;28;20055;-66
2022/05/22 00:18:44;;;;;;;2.10;1.00;;;15.70;70.70;;;;;;4962544;28;20046;-64
2022/05/22 00:21:12;;;;;;;2.75;1.00;;;15.70;70.80;;;;;;4958672;28;20363;-63
2022/05/22 00:23:39;;;;;;;1.70;0.60;;;15.70;71.00;;;;;;4962556;28;20047;-64
2022/05/22 00:26:06;;;;;;;5.78;1.52;;;15.70;71.10;;;;;;4964021;28;20480;-63
2022/05/22 00:28:33;;;;;;;4.35;0.98;;;15.70;71.20;;;;;;4961827;28;20552;-64
2022/05/22 00:31:00;;;;;;;2.45;0.80;;;15.70;71.30;;;;;;4962119;28;20408;-63
2022/05/22 00:33:27;;;;;;;1.85;0.80;;;15.60;71.40;;;;;;4963338;28;20477;-66
2022/05/22 00:35:55;;;;;;;1.92;0.77;;;15.60;71.60;;;;;;4962719;28;20512;-64
2022/05/22 00:38:23;;;;;;;1.48;0.60;;;15.60;71.60;;;;;;4961777;28;20081;-64
2022/05/22 00:40:50;;;;;;;2.00;0.82;;;15.50;71.70;;;;;;4963877;28;20050;-63
2022/05/22 00:43:28;;;;;;;5.22;0.98;;;15.40;71.90;;;;;;4960492;28;20078;-64
2022/05/22 00:45:55;;;;;;;4.30;0.70;;;15.40;72.00;;;;;;4939853;28;20393;-63
2022/05/22 00:48:23;;;;;;;4.32;0.65;;;15.40;72.30;;;;;;4957518;28;20121;-65
2022/05/22 00:50:52;;;;;;;3.28;1.05;;;15.40;72.30;;;;;;4955218;28;20695;-64
2022/05/22 00:53:30;;;;;;;2.38;1.33;;;15.40;72.50;;;;;;4955984;28;20715;-63
2022/05/22 00:55:58;;;;;;;2.90;1.10;;;15.40;72.60;;;;;;4957978;28;20051;-64
2022/05/22 00:58:31;;;;;;;1.77;0.70;;;15.40;72.70;;;;;;4959824;28;20051;-63
2022/05/22 01:00:58;;;;;;;2.83;0.80;;;15.50;72.60;;;;;;4954125;28;20493;-64
2022/05/22 01:03:31;;;;;;;0.95;0.68;;;15.50;72.60;;;;;;4939592;28;21237;-64
2022/05/22 01:06:03;;;;;;;1.50;0.70;;;15.50;72.50;;;;;;4957533;28;20516;-65
2022/05/22 01:08:32;;;;;;;3.80;1.20;;;15.50;72.70;;;;;;4958583;28;20100;-64
2022/05/22 01:11:02;;;;;;;6.22;1.10;;;15.50;72.70;;;;;;4941360;28;20141;-64
2022/05/22 01:13:34;;;;;;;2.08;0.57;;;15.50;73.00;;;;;;4951746;28;20050;-63
2022/05/22 01:16:04;;;;;;;3.75;1.15;;;15.50;73.20;;;;;;4957342;28;20130;-64
2022/05/22 01:18:40;;;;;;;2.08;1.17;;;15.50;73.40;;;;;;4939241;28;20066;-67
2022/05/22 01:21:12;;;;;;;3.55;1.27;;;15.50;73.50;;;;;;4955670;28;20136;-63
2022/05/22 01:23:40;;;;;;;3.85;1.20;;;15.50;73.60;;;;;;4956084;28;20101;-62
2022/05/22 01:26:14;;;;;;;2.58;0.95;;;15.40;73.80;;;;;;4957910;28;20042;-64
2022/05/22 01:28:41;;;;;;;1.70;1.00;;;15.40;73.80;;;;;;4955811;28;20157;-63
2022/05/22 01:31:12;;;;;;;2.30;1.15;;;15.50;74.00;;;;;;4955412;28;20059;-66
2022/05/22 01:33:41;;;;;;;1.65;1.15;;;15.40;74.10;;;;;;4952666;28;20048;-64
2022/05/22 01:36:09;;;;;;;2.67;1.00;;;15.40;74.10;;;;;;4954369;28;20075;-65
2022/05/22 01:38:37;;;;;;;2.63;1.10;;;15.40;74.10;;;;;;4954023;28;20097;-65
2022/05/22 01:41:06;;;;;;;1.83;0.88;;;15.40;74.20;;;;;;4936055;28;20058;-65
2022/05/22 01:43:42;;;;;;;1.92;0.70;;;15.40;74.10;;;;;;4955079;28;20319;-65
2022/05/22 01:46:18;;;;;;;4.50;0.77;;;15.50;74.20;;;;;;4936310;28;20047;-64
2022/05/22 01:48:57;;;;;;;3.92;1.27;;;15.40;74.40;;;;;;4955436;28;20058;-63
2022/05/22 01:51:26;;;;;;;2.85;0.95;;;15.50;74.30;;;;;;4958015;28;20052;-66
2022/05/22 01:53:54;;;;;;;4.05;1.30;;;15.40;74.50;;;;;;4960605;28;20191;-63
2022/05/22 01:56:22;;;;;;;2.67;0.98;;;15.40;74.50;;;;;;4960316;28;20043;-65
2022/05/22 01:58:50;;;;;;;1.52;0.85;;;15.40;74.60;;;;;;4961131;28;20153;-63
2022/05/22 02:01:27;;;;;;;2.22;0.98;;;15.40;74.70;;;;;;4960022;28;20053;-65
2022/05/22 02:03:56;;;;;;;2.97;0.93;;;15.40;74.80;;;;;;4944310;28;20519;-65
2022/05/22 02:06:30;;;;;;;4.65;1.15;;;15.40;74.60;;;;;;4962134;28;20046;-65
2022/05/22 02:09:01;;;;;;;2.03;1.02;;;15.40;74.60;;;;;;4950975;28;20050;-65
2022/05/22 02:11:30;;;;;;;1.90;1.20;;;15.40;74.40;;;;;;4945947;28;20066;-64
2022/05/22 02:13:59;;;;;;;;;;;15.40;74.20;;;;;;4960067;28;20051;-64
2022/05/22 02:16:26;;;;;;;5.63;1.00;;;15.40;74.10;;;;;;4963160;28;19930;-65
2022/05/22 02:18:53;;;;;;;3.72;1.67;;;15.50;74.00;;;;;;4964280;28;20053;-64
2022/05/22 02:21:20;;;;;;;1.50;0.82;;;15.40;74.00;;;;;;4961125;28;20047;-63
2022/05/22 02:23:47;;;;;;;2.20;0.88;;;15.40;73.80;;;;;;4961750;28;20408;-64
2022/05/22 02:26:14;;;;;;;2.13;0.90;;;15.50;73.80;;;;;;4963199;28;20682;-63
2022/05/22 02:28:47;;;;;;;1.80;0.90;;;15.50;73.90;;;;;;4960938;28;20053;-65
2022/05/22 02:31:16;;;;;;;2.40;1.05;;;15.40;74.10;;;;;;4959511;28;20110;-64
2022/05/22 02:33:48;;;;;;;3.30;1.05;;;15.40;74.00;;;;;;4960791;28;20049;-64
2022/05/22 02:36:17;;;;;;;3.88;1.20;;;15.30;73.90;;;;;;4960661;28;20134;-64
2022/05/22 02:38:48;;;;;;;3.85;0.88;;;15.30;74.10;;;;;;4945931;28;20059;-63
2022/05/22 02:41:18;;;;;;;2.88;1.00;;;15.20;74.20;;;;;;4958507;28;20532;-64
2022/05/22 02:43:55;;;;;;;2.25;1.13;;;15.20;74.30;;;;;;4956796;28;20055;-63
2022/05/22 02:46:24;;;;;;;1.35;0.77;;;15.20;74.30;;;;;;4961150;28;20497;-68
2022/05/22 02:48:52;;;;;;;3.38;1.33;;;15.20;74.30;;;;;;4964772;28;20085;-65
2022/05/22 02:51:25;;;;;;;1.58;0.73;;;15.20;74.40;;;;;;4965453;28;20489;-63
2022/05/22 02:53:55;;;;;;;1.73;0.60;;;15.10;74.70;;;;;;4965443;28;20138;-64
2022/05/22 02:56:31;;;;;;;3.40;0.93;;;15.20;74.90;;;;;;4965860;28;20054;-65
2022/05/22 02:59:19;;;;;;;1.73;0.82;;;15.10;75.00;;;;;;4960817;28;20090;-63
2022/05/22 03:02:09;;;;;;;2.13;1.10;;;15.10;75.00;;;;;;4946775;28;20043;-67
2022/05/22 03:04:37;;;;;;;2.47;1.25;;;15.10;75.20;;;;;;4967136;28;20039;-64
2022/05/22 03:07:10;;;;;;;1.92;0.90;;;15.10;75.20;;;;;;4963964;28;20047;-64
2022/05/22 03:09:38;;;;;;;4.60;1.20;;;15.00;75.20;;;;;;4949360;28;20106;-64
2022/05/22 03:12:07;;;;;;;1.70;0.95;;;15.00;75.20;;;;;;4966224;28;20151;-67
2022/05/22 03:14:43;;;;;;;1.60;0.88;;;15.00;75.20;;;;;;4963640;28;20074;-64
2022/05/22 03:17:10;;;;;;;1.95;0.82;;;15.00;75.10;;;;;;4963612;28;20045;-64
2022/05/22 03:19:45;;;;;;;1.35;0.75;;;14.90;75.00;;;;;;4963563;28;20063;-64
2022/05/22 03:22:14;;;;;;;1.67;0.68;;;14.90;75.00;;;;;;4964191;28;20065;-65
2022/05/22 03:24:41;;;;;;;2.22;0.70;;;14.90;74.80;;;;;;4959084;28;20511;-65
2022/05/22 03:27:11;;;;;;;2.72;1.00;;;14.80;75.00;;;;;;4962553;28;20055;-66
2022/05/22 03:29:40;;;;;;;1.65;0.90;;;14.80;75.10;;;;;;4964269;28;20057;-71
2022/05/22 03:32:08;;;;;;;1.90;0.65;;;14.70;75.30;;;;;;4964018;28;20046;-63
2022/05/22 03:34:36;;;;;;;1.55;0.77;;;14.70;75.40;;;;;;4949280;28;20171;-64
2022/05/22 03:37:04;;;;;;;3.83;0.93;;;14.70;75.50;;;;;;4962785;28;20047;-65
2022/05/22 03:39:32;;;;;;;2.90;0.85;;;14.80;75.50;;;;;;4964399;28;20043;-65
2022/05/22 03:41:59;;;;;;;4.30;0.80;;;14.70;75.50;;;;;;4962374;28;20101;-66
2022/05/22 03:44:26;;;;;;;0.80;0.60;;;14.70;75.70;;;;;;4954166;28;20137;-65
2022/05/22 03:46:55;;;;;;;1.73;0.80;;;14.70;75.60;;;;;;4965270;28;20682;-64
2022/05/22 03:49:28;;;;;;;1.83;0.93;;;14.70;75.60;;;;;;4963457;28;20058;-64
2022/05/22 03:51:57;;;;;;;1.77;0.65;;;14.80;75.50;;;;;;4964057;28;20669;-63
2022/05/22 03:54:24;;;;;;;2.67;0.90;;;14.70;75.40;;;;;;4964952;28;20047;-64
2022/05/22 03:56:56;;;;;;;2.25;1.73;;;14.70;75.40;;;;;;4963545;28;20050;-65
2022/05/22 03:59:27;;;;;;;1.25;0.82;;;14.80;75.30;;;;;;4964083;28;20050;-63
2022/05/22 04:01:56;;;;;;;1.25;0.63;;;14.70;75.10;;;;;;4961664;28;20051;-64
2022/05/22 04:04:24;;;;;;;3.43;1.10;;;14.80;74.90;;;;;;4964202;28;20051;-63
2022/05/22 04:06:52;;;;;;;3.90;1.00;;;14.80;74.80;;;;;;4964033;28;20126;-64
2022/05/22 04:09:24;;;;;;;1.02;0.68;;;14.80;74.80;;;;;;4963735;28;20047;-63
2022/05/22 04:12:14;;;;;;;2.47;0.70;;;14.70;74.90;;;;;;4962378;28;20047;-63
2022/05/22 04:14:44;;;;;;;1.88;0.73;;;14.70;75.00;;;;;;4964259;28;20627;-63
2022/05/22 04:17:14;;;;;;;2.90;0.93;;;14.70;75.10;;;;;;4962581;28;20138;-63
2022/05/22 04:19:41;;;;;;;2.55;0.90;;;14.70;75.10;;;;;;4964328;28;21091;-63
2022/05/22 04:22:12;;;;;;;2.45;1.17;;;14.70;75.20;;;;;;4963733;28;20081;-64
2022/05/22 04:27:32;;;;;;;2.65;1.00;;;14.70;75.60;;;;;;4948415;28;20054;-65
2022/05/22 04:30:00;;;;;;;6.22;1.17;;;14.70;75.60;;;;;;4963440;28;20059;-64
2022/05/22 04:32:38;;;;;;;2.50;0.95;;;14.70;75.60;;;;;;4964712;28;20651;-66
2022/05/22 04:35:05;;;;;;;2.58;1.00;;;14.60;75.50;;;;;;4963478;28;20047;-65
2022/05/22 04:37:33;;;;;;;2.90;0.70;;;14.70;75.50;;;;;;4948754;28;20138;-64
2022/05/22 04:40:03;;;;;;;2.42;0.77;;;14.70;75.40;;;;;;4962795;28;20055;-63
2022/05/22 04:42:34;;;;;;;2.13;0.93;;;14.70;75.40;;;;;;4962892;28;20129;-64
2022/05/22 04:45:03;;;;;;;1.63;0.80;;;14.70;75.40;;;;;;4961361;28;20484;-64
2022/05/22 04:47:45;;;;;;;2.92;0.88;;;14.60;75.50;;;;;;4962049;28;20136;-63
2022/05/22 04:50:23;;;;;;;2.20;0.70;;;14.70;75.60;;;;;;4963421;28;20054;-64
2022/05/22 04:53:29;;;;;;;2.80;0.90;;;14.70;75.70;;;;;;4963294;28;20058;-65
2022/05/22 04:56:08;;;;;;;2.25;0.90;;;14.70;75.90;;;;;;4947882;28;20045;-65
2022/05/22 04:58:42;;;;;;;1.83;1.05;;;14.60;75.90;;;;;;4951646;28;20585;-65
2022/05/22 05:01:12;;;;;;;2.38;1.10;;;14.60;76.00;;;;;;4949024;28;20052;-64
2022/05/22 05:03:53;;;;;;;;;;;14.60;76.00;;;;;;4961843;28;20050;-65
2022/05/22 05:06:20;;;;;;;3.15;0.95;;;14.70;76.10;;;;;;4963203;28;19922;-66
2022/05/22 05:08:51;;;;;;;3.95;1.40;;;14.70;76.20;;;;;;4946378;28;20061;-65
2022/05/22 05:11:24;;;;;;;2.80;1.50;;;14.70;76.30;;;;;;4962782;28;20039;-65
2022/05/22 05:14:02;;;;;;;2.42;1.05;;;14.80;76.10;;;;;;4952856;28;20050;-66
2022/05/22 05:16:30;;;;;;;3.25;1.20;;;14.80;75.90;;;;;;4947593;28;20451;-65
2022/05/22 05:19:15;;;;;;;2.88;1.00;;;14.90;75.90;;;;;;4952160;28;20054;-65
2022/05/22 05:21:43;;;;;;;2.20;1.05;;;14.90;76.00;;;;;;4963078;28;20113;-63
2022/05/22 05:24:12;;;;;;;2.60;1.08;;;14.90;75.80;;;;;;4961735;28;20046;-65
2022/05/22 05:26:40;;;;;;;3.10;1.10;;;14.90;75.60;;;;;;4961435;28;20054;-64
2022/05/22 05:29:14;;;;;;;2.28;1.38;;;15.00;75.40;;;;;;4961336;28;20132;-65
2022/05/22 05:31:42;;;;;;;3.47;1.10;;;15.00;75.20;;;;;;4953015;28;20073;-63
2022/05/22 05:34:11;;;;;;;2.00;1.17;;;15.00;75.30;;;;;;4961593;28;20051;-64
2022/05/22 05:36:58;;;;;;;4.97;1.35;;;15.00;75.20;;;;;;4961177;28;20059;-63
2022/05/22 05:39:43;;;;;;;3.78;1.30;;;15.00;75.20;;;;;;4952127;28;20404;-63
2022/05/22 05:42:10;;;;;;;2.25;1.10;;;15.10;75.00;;;;;;4963020;28;20047;-65
2022/05/22 05:44:37;;;;;;;5.45;1.35;;;15.10;75.10;;;;;;4963252;28;20524;-64
2022/05/22 05:47:16;;;;;;;3.85;1.20;;;15.10;75.10;;;;;;4963081;28;20055;-66
2022/05/22 05:49:56;;;;;;;2.00;0.87;;;15.10;74.90;;;;;;4963142;28;20501;-63
2022/05/22 05:52:58;;;;;;;1.90;1.13;;;15.20;74.90;;;;;;4916626;28;20466;-63
2022/05/22 05:55:44;;;;;;;4.80;1.20;;;15.20;74.70;;;;;;4954501;28;20102;-64
2022/05/22 05:58:40;;;;;;;3.33;1.15;;;15.20;74.80;;;;;;4949802;28;20168;-64
2022/05/22 06:01:21;;;;;;;5.32;1.30;;;15.40;74.40;;;;;;4959421;28;20429;-64
2022/05/22 06:03:48;;;;;;;3.83;1.65;;;15.50;74.30;;;;;;4945255;28;20051;-64
2022/05/22 06:06:16;;;;;;;2.33;1.23;;;15.50;74.30;;;;;;4964305;28;20058;-65
2022/05/22 06:08:45;;;;;;;3.10;1.30;;;15.60;74.30;;;;;;4962657;28;20051;-65
2022/05/22 06:11:35;;;;;;;3.33;1.27;;;15.60;74.30;;;;;;4949886;28;20082;-64
2022/05/22 06:14:29;;;;;;;3.53;1.02;;;15.80;74.10;;;;;;4962832;28;20082;-64
2022/05/22 06:16:57;;;;;;;3.90;1.10;;;15.90;73.70;;;;;;4944845;28;20049;-65
2022/05/22 06:22:17;;;;;;;3.00;1.10;;;16.00;73.10;;;;;;4962128;28;20079;-64
2022/05/22 06:24:48;;;;;;;4.80;1.60;;;16.10;72.60;;;;;;4961631;28;20068;-64
2022/05/22 06:27:34;;;;;;;4.15;0.88;;;16.10;72.30;;;;;;4963156;28;20058;-63
2022/05/22 06:30:13;;;;;;;2.85;0.95;;;16.10;72.50;;;;;;4963872;28;20069;-65
2022/05/22 06:33:07;;;;;;;1.88;1.02;;;16.10;72.60;;;;;;4960722;28;20086;-66
2022/05/22 06:35:53;;;;;;;2.53;1.00;;;16.10;72.60;;;;;;4961509;28;20178;-65
2022/05/22 06:41:40;;;;;;;2.47;1.33;;;16.50;72.50;;;;;;4961816;28;20066;-64
2022/05/22 06:44:34;;;;;;;1.33;0.68;;;16.60;72.20;;;;;;4957944;28;20047;-66
2022/05/22 06:47:23;;;;;;;3.60;1.10;;;16.80;72.00;;;;;;4958312;28;20611;-67
2022/05/22 06:50:28;;;;;;;2.92;1.05;;;16.90;71.70;;;;;;4921758;29;20206;-65
2022/05/22 06:53:14;;;;;;;3.30;1.40;;;17.10;71.00;;;;;;4922277;29;20453;-64
2022/05/22 06:55:59;;;;;;;3.25;1.40;;;17.20;70.90;;;;;;4946356;28;20058;-65
2022/05/22 06:58:38;;;;;;;5.18;1.10;;;17.30;70.30;;;;;;4962742;28;20062;-65
2022/05/22 07:01:15;;;;;;;2.92;1.52;;;17.40;70.30;;;;;;4957265;28;20193;-65
2022/05/22 07:04:14;;;;;;;4.88;1.80;;;17.60;69.90;;;;;;4910000;28;20059;-64
2022/05/22 07:07:07;;;;;;;4.47;1.38;;;17.70;69.80;;;;;;4955993;28;20054;-64
2022/05/22 07:09:50;;;;;;;1.63;1.02;;;17.90;69.10;;;;;;4959981;28;20121;-65
2022/05/22 07:12:40;;;;;;;3.60;1.20;;;18.00;68.70;;;;;;4943938;28;20609;-64
2022/05/22 07:15:29;;;;;;;5.30;1.35;;;18.20;68.00;;;;;;4955663;28;20548;-64
2022/05/22 07:18:21;;;;;;;1.75;0.90;;;18.30;67.50;;;;;;4945994;28;20046;-64
2022/05/22 07:21:12;;;;;;;3.08;1.17;;;18.60;66.80;;;;;;4961167;28;20055;-63
2022/05/22 07:23:52;;;;;;;3.08;1.00;;;18.60;66.70;;;;;;4962074;28;20051;-63
2022/05/22 07:26:33;;;;;;;3.67;1.00;;;18.80;66.30;;;;;;4958582;28;20043;-64
2022/05/22 07:29:23;;;;;;;;;;;18.90;65.30;;;;;;4953655;28;20050;-67
2022/05/22 07:32:10;;;;;;;3.88;1.25;;;19.10;64.30;;;;;;4958948;28;19941;-65
2022/05/22 07:34:57;;;;;;;6.22;1.42;;;19.30;64.40;;;;;;4940198;28;21281;-63
2022/05/22 07:37:53;;;;;;;3.33;1.27;;;19.40;63.50;;;;;;4923520;28;20059;-65
2022/05/22 07:40:39;;;;;;;3.75;1.10;;;19.60;63.10;;;;;;4959226;28;20062;-65
2022/05/22 07:43:25;;;;;;;2.58;1.10;;;19.60;63.00;;;;;;4960201;28;20058;-64
2022/05/22 07:46:12;;;;;;;3.45;1.40;;;19.70;62.60;;;;;;4956475;28;20401;-65
2022/05/22 07:48:53;;;;;;;2.72;1.08;;;19.70;61.60;;;;;;4956301;28;20055;-65
2022/05/22 07:51:23;;;;;;;3.38;1.10;;;19.60;62.10;;;;;;4957343;28;20043;-65
2022/05/22 07:54:22;;;;;;;2.80;1.30;;;19.60;61.90;;;;;;4926729;28;20066;-64
2022/05/22 07:57:21;;;;;;;3.83;1.40;;;19.80;62.00;;;;;;4925632;28;20478;-64
2022/05/22 08:00:23;;;;;;;4.78;1.10;;;19.90;62.40;;;;;;4958163;28;20052;-71
2022/05/22 08:02:59;;;;;;;5.00;1.17;;;20.10;62.70;;;;;;4934018;28;20279;-71
2022/05/22 08:05:28;;;;;;;5.55;1.13;;;20.20;62.70;;;;;;4957742;28;20054;-71
2022/05/22 08:08:00;;;;;;;3.50;1.27;;;20.30;62.90;;;;;;4956782;28;20050;-70
2022/05/22 08:10:50;;;;;;;;;;;20.50;61.40;;;;;;4959019;28;20062;-70
2022/05/22 08:13:23;;;;;;;3.65;1.10;;;20.70;59.50;;;;;;4952983;28;19933;-72
2022/05/22 08:15:51;;;;;;;2.45;1.23;;;20.80;56.50;;;;;;4947410;28;20058;-72
2022/05/22 08:18:34;;;;;;;3.67;1.10;;;20.90;55.90;;;;;;4958007;28;20047;-71
2022/05/22 08:21:04;;;;;;;4.38;0.77;;;21.00;55.60;;;;;;4958092;28;20051;-71
2022/05/22 08:23:33;;;;;;;1.98;0.82;;;21.10;51.70;;;;;;4944934;28;20043;-72
2022/05/22 08:26:15;;;;;;;3.70;1.05;;;21.10;52.80;;;;;;4947342;28;20080;-71
2022/05/22 08:28:42;;;;;;;2.88;1.17;;;21.20;53.40;;;;;;4955449;28;20481;-72
2022/05/22 08:31:11;;;;;;;5.03;1.08;;;21.30;53.10;;;;;;4945427;28;20138;-71
2022/05/22 08:33:41;;;;;;;3.42;0.93;;;21.40;52.20;;;;;;4954047;28;20043;-72
2022/05/22 08:36:11;;;;;;;2.92;0.75;;;21.50;52.60;;;;;;4956040;28;20046;-71
2022/05/22 08:38:38;;;;;;;2.33;0.90;;;21.60;52.20;;;;;;4955818;28;20044;-72
2022/05/22 08:41:10;;;;;;;2.85;0.85;;;21.70;52.70;;;;;;4956705;28;20101;-72
2022/05/22 08:43:44;;;;;;;2.55;0.93;;;21.80;52.40;;;;;;4956144;28;20050;-71
2022/05/22 08:46:15;;;;;;;4.60;1.25;;;22.00;51.30;;;;;;4958952;28;20146;-72
2022/05/22 08:48:47;;;;;;;2.72;0.88;;;22.10;50.50;;;;;;4954331;28;20055;-72
2022/05/22 08:51:19;;;;;;;7.40;1.30;;;22.10;52.20;;;;;;4951476;28;20046;-71
2022/05/22 08:53:51;;;;;;;4.70;0.90;;;22.20;50.50;;;;;;4955150;28;20149;-72
2022/05/22 08:59:11;;;;;;;;;;;22.30;50.60;;;;;;4954859;28;23142;-70
2022/05/22 09:01:46;;;;;;;3.88;0.90;;;22.40;50.60;;;;;;4957701;28;19926;-71
2022/05/22 09:04:25;;;;;;;2.45;0.70;;;22.50;51.30;;;;;;4965375;28;20059;-71
2022/05/22 09:07:03;;;;;;;1.33;0.63;;;22.50;51.60;;;;;;4955416;28;20050;-71
2022/05/22 09:09:33;;;;;;;3.03;1.20;;;22.60;52.30;;;;;;4957230;28;20381;-70
2022/05/22 09:12:16;;;;;;;2.15;0.88;;;22.80;52.00;;;;;;4954796;28;20051;-72
2022/05/22 09:14:49;;;;;;;2.35;0.90;;;22.90;51.40;;;;;;4958628;28;20050;-73
2022/05/22 09:17:18;;;;;;;4.10;1.23;;;23.00;51.10;;;;;;4957331;28;20047;-73
2022/05/22 09:19:48;;;;;;;1.52;0.73;;;23.00;49.80;;;;;;4954315;28;20449;-73
2022/05/22 09:22:24;;;;;;;2.10;0.80;;;23.10;51.00;;;;;;4956031;28;20042;-72
2022/05/22 09:25:04;;;;;;;6.38;1.30;;;23.20;50.70;;;;;;4954610;28;20039;-72
2022/05/22 09:27:42;;;;;;;6.85;2.38;;;23.20;50.70;;;;;;4957272;28;20149;-72
2022/05/22 09:30:19;;;;;;;4.40;1.50;;;23.30;50.70;;;;;;4956568;28;20061;-72
2022/05/22 09:33:03;;;;;;;3.92;1.38;;;23.40;50.30;;;;;;4957089;28;20045;-71
2022/05/22 09:35:41;;;;;;;3.35;1.80;;;23.50;49.80;;;;;;4955730;28;20503;-71
2022/05/22 09:38:27;;;;;;;3.25;1.33;;;23.60;49.70;;;;;;4955246;28;20256;-72
2022/05/22 09:41:06;;;;;;;2.55;1.02;;;23.60;49.10;;;;;;4957520;28;20039;-71
2022/05/22 09:43:58;;;;;;;3.53;0.88;;;23.80;46.00;;;;;;4954574;28;20049;-72
2022/05/22 09:46:55;;;;;;;7.00;1.00;;;23.80;47.80;;;;;;4958216;28;20051;-71
2022/05/22 09:49:44;;;;;;;2.67;1.00;;;23.80;47.60;;;;;;4953025;28;20431;-72
2022/05/22 09:52:18;;;;;;;3.22;1.05;;;23.80;48.30;;;;;;4954908;28;20511;-71
2022/05/22 09:55:06;;;;;;;2.38;0.90;;;23.80;47.90;;;;;;4956961;28;20110;-72
2022/05/22 09:57:44;;;;;;;4.13;1.10;;;23.90;47.00;;;;;;4952731;28;20039;-72
2022/05/22 10:00:14;;;;;;;5.10;1.15;;;23.90;47.70;;;;;;4955455;28;20058;-72
2022/05/22 10:02:51;;;;;;;0.93;0.63;;;23.90;47.40;;;;;;4956702;28;20049;-72
2022/05/22 10:05:30;;;;;;;3.40;0.88;;;23.90;47.30;;;;;;4956850;28;20055;-72
2022/05/22 10:08:07;;;;;;;2.58;0.90;;;24.00;47.50;;;;;;4955124;28;20469;-71
2022/05/22 10:10:44;;;;;;;3.28;1.10;;;24.00;47.10;;;;;;4954980;28;20043;-72
2022/05/22 10:13:27;;;;;;;2.83;1.20;;;24.10;47.30;;;;;;4956103;28;20050;-72
2022/05/22 10:16:08;;;;;;;5.15;1.45;;;24.10;47.10;;;;;;4956584;28;20065;-73
2022/05/22 10:19:01;;;;;;;2.97;1.00;;;24.20;45.10;;;;;;4955684;28;20972;-71
2022/05/22 10:21:34;;;;;;;2.00;0.80;;;24.30;44.50;;;;;;4954299;28;20113;-72
2022/05/22 10:24:12;;;;;;;6.30;1.25;;;24.30;45.30;;;;;;4957441;28;20043;-71
2022/05/22 10:26:56;;;;;;;2.95;0.70;;;24.40;45.90;;;;;;4956859;28;20129;-72
2022/05/22 10:29:26;;;;;;;2.85;1.00;;;24.30;45.50;;;;;;4954795;28;20045;-73
2022/05/22 10:32:00;;;;;;;2.42;0.88;;;24.40;46.00;;;;;;4937356;28;20462;-73
2022/05/22 10:34:37;;;;;;;3.40;0.90;;;24.40;45.70;;;;;;4937645;29;20045;-72
2022/05/22 10:37:22;;;;;;;2.15;0.80;;;24.30;45.10;;;;;;4938593;28;20118;-73
2022/05/22 10:39:49;;;;;;;6.95;1.42;;;24.30;45.70;;;;;;4938749;29;20138;-73
2022/05/22 10:45:18;;;;;;;7.22;1.73;;;24.30;45.90;;;;;;4937192;28;20093;-72
2022/05/22 10:47:45;;;;;;;6.13;2.55;;;24.40;45.70;;;;;;4936888;29;20051;-72
2022/05/22 10:50:17;;;;;;;10.40;4.60;;;24.40;45.90;;;;;;4932667;28;20102;-72
2022/05/22 10:52:45;;;;;;;8.15;4.20;;;24.50;44.70;;;;;;4938025;28;20484;-72
2022/05/22 10:55:39;;;;;;;6.45;2.58;;;24.70;42.80;;;;;;4937294;28;20502;-72
2022/05/22 10:58:21;;;;;;;4.30;1.95;;;24.70;44.10;;;;;;4928729;28;20059;-73
2022/05/22 11:00:53;;;;;;;2.75;1.55;;;24.60;43.70;;;;;;4928704;29;20032;-72
2022/05/22 11:03:26;;;;;;;5.82;1.95;;;24.60;44.50;;;;;;4935182;28;20556;-72
2022/05/22 11:05:54;;;;;;;4.97;1.85;;;24.60;44.40;;;;;;4938317;28;20051;-72
2022/05/22 11:08:32;;;;;;;4.75;1.80;;;24.70;43.80;;;;;;4940633;29;20054;-72
2022/05/22 11:11:13;;;;;;;5.05;1.60;;;24.80;43.70;;;;;;4939312;28;20541;-72
2022/05/22 11:13:42;;;;;;;2.33;1.20;;;24.70;44.00;;;;;;4941174;28;20046;-71
2022/05/22 11:16:15;;;;;;;6.03;1.60;;;24.60;44.20;;;;;;4939753;29;20115;-73
2022/05/22 11:18:42;;;;;;;5.70;1.73;;;24.60;44.00;;;;;;4938149;29;20043;-72
2022/05/22 11:21:20;;;;;;;3.28;1.38;;;24.60;42.70;;;;;;4943883;28;20047;-70
2022/05/22 11:24:13;;;;;;;5.65;2.70;;;24.60;43.40;;;;;;4941810;28;20042;-73
2022/05/22 11:26:52;;;;;;;9.05;4.20;;;24.60;44.50;;;;;;4935774;28;20150;-72
2022/05/22 11:29:41;;;;;;;4.60;2.60;;;24.70;44.90;;;;;;4940006;28;20043;-72
2022/05/22 11:32:19;;;;;;;4.93;2.70;;;24.70;45.00;;;;;;4973994;28;23207;-71
2022/05/22 11:35:10;;;;;;;8.85;2.72;;;24.70;44.80;;;;;;4977851;28;20038;-72
2022/05/22 11:37:48;;;;;;;5.35;2.30;;;24.80;44.70;;;;;;4977012;28;20055;-72
2022/05/22 11:40:29;;;;;;;7.55;2.33;;;24.70;44.90;;;;;;4976870;28;20042;-71
2022/05/22 11:43:07;;;;;;;3.78;1.63;;;24.70;45.20;;;;;;4976499;28;20868;-71
2022/05/22 11:45:51;;;;;;;3.63;1.63;;;24.80;45.00;;;;;;4980165;28;20042;-71
2022/05/22 11:48:55;;;;;;;4.30;1.52;;;24.70;45.10;;;;;;4974257;28;20093;-72
2022/05/22 11:51:35;;;;;;;4.50;1.40;;;24.70;44.80;;;;;;4979282;28;20066;-70
2022/05/22 11:54:17;;;;;;;3.17;1.20;;;24.70;44.90;;;;;;4976015;28;20047;-71
2022/05/22 11:56:58;;;;;;;5.00;1.45;;;24.80;44.80;;;;;;4976305;28;20047;-71
2022/05/22 11:59:52;;;;;;;2.50;1.23;;;24.70;44.70;;;;;;4975853;28;20049;-73
2022/05/22 12:02:30;;;;;;;2.90;0.88;;;24.70;44.60;;;;;;4978168;28;20060;-70
2022/05/22 12:05:25;;;;;;;4.05;1.23;;;24.70;44.60;;;;;;4978558;28;20043;-71
2022/05/22 12:08:07;;;;;;;3.20;1.10;;;24.70;44.60;;;;;;4977380;28;20065;-71
2022/05/22 12:10:36;;;;;;;2.33;0.98;;;24.70;44.70;;;;;;4974235;28;20047;-70
2022/05/22 12:13:10;;;;;;;2.95;1.30;;;24.70;44.50;;;;;;4976238;28;20877;-72
2022/05/22 12:15:43;;;;;;;2.47;0.85;;;24.70;44.20;;;;;;4978798;28;20109;-71
2022/05/22 12:18:36;;;;;;;2.97;1.10;;;24.80;44.30;;;;;;4977527;28;20413;-72
2022/05/22 12:21:13;;;;;;;2.42;1.05;;;24.70;44.40;;;;;;4977658;28;20044;-71
2022/05/22 12:23:50;;;;;;;2.15;1.00;;;24.80;44.20;;;;;;4978609;28;20050;-72
2022/05/22 12:26:17;;;;;;;3.17;0.85;;;24.80;44.00;;;;;;4975966;28;20054;-70
2022/05/22 12:28:48;;;;;;;2.67;0.98;;;24.80;44.00;;;;;;4977082;28;20134;-71
2022/05/22 12:31:22;;;;;;;3.58;0.90;;;24.80;43.40;;;;;;4973631;28;20090;-71
2022/05/22 12:33:51;;;;;;;2.33;0.68;;;24.80;42.40;;;;;;4975826;28;20510;-72
2022/05/22 12:36:24;;;;;;;3.65;1.45;;;24.90;43.30;;;;;;4978195;28;21011;-72
2022/05/22 12:38:57;;;;;;;3.53;1.08;;;24.90;43.30;;;;;;4978243;28;20043;-71
2022/05/22 12:41:40;;;;;;;5.78;1.55;;;24.80;43.70;;;;;;4976357;28;20057;-71
2022/05/22 12:44:08;;;;;;;5.00;1.00;;;24.80;43.20;;;;;;4977084;28;20054;-71
2022/05/22 12:46:37;;;;;;;2.55;1.10;;;24.80;43.60;;;;;;4978608;28;20046;-71
2022/05/22 12:49:20;;;;;;;3.53;1.60;;;24.80;43.60;;;;;;4978149;28;20448;-73
2022/05/22 12:52:01;;;;;;;2.78;0.93;;;24.80;43.60;;;;;;4963591;28;20054;-72
2022/05/22 12:54:31;;;;;;;4.78;1.48;;;24.80;43.60;;;;;;4980642;28;20054;-71
2022/05/22 12:57:15;;;;;;;5.45;1.77;;;24.80;43.50;;;;;;4976589;28;20050;-72
2022/05/22 12:59:54;;;;;;;3.50;1.30;;;24.90;43.30;;;;;;4978717;28;20122;-72
2022/05/22 13:02:44;;;;;;;5.15;1.80;;;24.90;43.20;;;;;;4978587;28;20571;-71
2022/05/22 13:05:27;;;;;;;4.00;1.65;;;25.00;42.40;;;;;;4983231;28;20129;-72
2022/05/22 13:07:54;;;;;;;3.75;1.73;;;25.00;42.60;;;;;;4977497;28;20129;-71
2022/05/22 13:10:26;;;;;;;3.92;2.05;;;25.10;42.50;;;;;;4977401;28;20693;-71
2022/05/22 13:12:57;;;;;;;3.92;1.70;;;25.00;41.50;;;;;;4974716;28;20106;-72
2022/05/22 13:15:27;;;;;;;3.88;1.45;;;25.00;42.10;;;;;;4975488;28;20046;-72
2022/05/22 13:18:11;;;;;;;3.78;1.30;;;24.90;42.00;;;;;;4974977;28;20039;-71
2022/05/22 13:20:53;;;;;;;3.53;1.27;;;24.90;43.00;;;;;;4975954;28;20488;-72
2022/05/22 13:23:33;;;;;;;3.58;1.23;;;24.80;43.30;;;;;;4977144;28;20066;-70
2022/05/22 13:26:03;;;;;;;2.65;0.98;;;24.80;43.30;;;;;;4975184;28;20563;-71
2022/05/22 13:28:33;;;;;;;2.17;1.05;;;24.70;43.20;;;;;;4977390;28;20054;-70
2022/05/22 13:31:08;;;;;;;2.13;0.90;;;24.80;43.10;;;;;;4974674;28;20046;-71
2022/05/22 13:33:42;;;;;;;3.72;1.30;;;24.70;43.20;;;;;;4971453;28;20066;-71
2022/05/22 13:36:17;;;;;;;2.88;0.95;;;24.70;43.10;;;;;;4975094;28;20042;-71
2022/05/22 13:38:44;;;;;;;3.08;1.02;;;24.70;43.30;;;;;;4973814;28;20046;-72
2022/05/22 13:41:35;;;;;;;3.10;1.00;;;24.80;42.60;;;;;;4971779;28;20053;-70
2022/05/22 13:44:55;;;;;;;2.88;1.15;;;24.80;42.70;;;;;;4974078;28;20097;-72
2022/05/22 13:47:41;;;;;;;3.90;1.35;;;24.80;42.50;;;;;;4976744;28;20134;-70
2022/05/22 13:53:20;;;;;;;5.20;1.25;;;24.80;42.70;;;;;;4977295;28;20038;-71